This is the latest recevied weather packets stored in our database for station/object LU8AQL-WX. If no packets are shown the sender has not sent any weather packets the latest 10 day(s).
| Time | Temp. | Humidity | Pressure | Rain* | Wind** | Luminosity | Snow |
|---|---|---|---|---|---|---|---|
| 1788021201 | 17.78° C | 52% | 1014 hPa | 0 mm | - | - | - |
| 1788020600 | 17.78° C | 53% | 1014 hPa | 0 mm | - | - | - |
| 1788019999 | 17.78° C | 53% | 1014 hPa | 0 mm | - | - | - |
| 1788019398 | 17.78° C | 52% | 1015 hPa | 0 mm | - | - | - |
| 1788018797 | 17.78° C | 51% | 1015 hPa | 0 mm | - | - | - |
| 1788018196 | 17.78° C | 52% | 1015 hPa | 0 mm | - | - | - |
| 1788017595 | 17.78° C | 51% | 1015 hPa | 0 mm | - | - | - |
| 1788016994 | 17.78° C | 51% | 1014 hPa | 0 mm | - | - | - |
| 1788016393 | 17.22° C | 50% | 1014 hPa | 0 mm | - | - | - |
| 1788015793 | 17.22° C | 50% | 1015 hPa | 0 mm | - | - | - |
| 1788015191 | 17.22° C | 49% | 1015 hPa | 0 mm | - | - | - |
| 1788014590 | 17.22° C | 50% | 1015 hPa | 0 mm | - | - | - |
| 1788013989 | 16.67° C | 51% | 1015 hPa | 0 mm | - | - | - |
| 1788013389 | 16.67° C | 51% | 1014 hPa | 0 mm | - | - | - |
| 1788012788 | 16.67° C | 54% | 1014 hPa | 0 mm | - | - | - |
| 1788012187 | 16.11° C | 54% | 1014 hPa | 0 mm | - | - | - |
| 1788011586 | 15.56° C | 54% | 1015 hPa | 0 mm | - | - | - |
| 1788010985 | 15.56° C | 54% | 1015 hPa | 0 mm | - | - | - |
| 1788010384 | 15.56° C | 55% | 1015 hPa | 0 mm | - | - | - |
| 1788009784 | 15° C | 58% | 1015 hPa | 0 mm | - | - | - |
| 1788009182 | 13.89° C | 64% | 1014 hPa | 0 mm | - | - | - |
| 1788008581 | 13.33° C | 71% | 1014 hPa | 0 mm | - | - | - |
| 1788007981 | 13.33° C | 73% | 1015 hPa | 0 mm | - | - | - |
| 1788007380 | 12.78° C | 75% | 1015 hPa | 0 mm | - | - | - |
| 1788006779 | 12.78° C | 76% | 1016 hPa | 0 mm | - | - | - |
* Rain latest hour (hover to see other rain measurements)
** Current wind speed in m/s (hover to see current wind gust speed)